sensor_id;sensor_type;location;lat;lon;timestamp;P1;durP1;ratioP1;P2;durP2;ratioP2
36241;SDS011;22283;42.748;12.732;2022-11-20T00:09:06;1.90;;;1.08;;
36241;SDS011;22283;42.748;12.732;2022-11-20T00:14:08;1.93;;;1.00;;
36241;SDS011;22283;42.748;12.732;2022-11-20T00:19:09;1.17;;;0.80;;
36241;SDS011;22283;42.748;12.732;2022-11-20T00:24:10;7.57;;;1.37;;
36241;SDS011;22283;42.748;12.732;2022-11-20T00:29:11;1.67;;;1.08;;
36241;SDS011;22283;42.748;12.732;2022-11-20T00:34:12;1.60;;;0.90;;
36241;SDS011;22283;42.748;12.732;2022-11-20T00:39:12;1.77;;;0.93;;
36241;SDS011;22283;42.748;12.732;2022-11-20T00:44:13;1.93;;;1.10;;
36241;SDS011;22283;42.748;12.732;2022-11-20T00:49:13;1.33;;;0.90;;
36241;SDS011;22283;42.748;12.732;2022-11-20T00:54:14;1.47;;;0.80;;
36241;SDS011;22283;42.748;12.732;2022-11-20T00:59:15;1.30;;;0.80;;
36241;SDS011;22283;42.748;12.732;2022-11-20T01:04:15;1.90;;;0.80;;
36241;SDS011;22283;42.748;12.732;2022-11-20T01:09:16;1.43;;;0.90;;
36241;SDS011;22283;42.748;12.732;2022-11-20T01:14:18;0.77;;;0.60;;
36241;SDS011;22283;42.748;12.732;2022-11-20T01:19:21;1.40;;;0.80;;
36241;SDS011;22283;42.748;12.732;2022-11-20T01:24:23;2.88;;;0.80;;
36241;SDS011;22283;42.748;12.732;2022-11-20T01:29:24;1.43;;;0.60;;
36241;SDS011;22283;42.748;12.732;2022-11-20T01:34:25;1.38;;;0.63;;
36241;SDS011;22283;42.748;12.732;2022-11-20T01:39:26;0.83;;;0.60;;
36241;SDS011;22283;42.748;12.732;2022-11-20T01:50:26;0.82;;;0.60;;
36241;SDS011;22283;42.748;12.732;2022-11-20T01:55:32;2.28;;;0.60;;
36241;SDS011;22283;42.748;12.732;2022-11-20T02:00:36;0.90;;;0.60;;
36241;SDS011;22283;42.748;12.732;2022-11-20T02:05:47;4.40;;;0.70;;
36241;SDS011;22283;42.748;12.732;2022-11-20T02:11:05;2.20;;;0.50;;
36241;SDS011;22283;42.748;12.732;2022-11-20T02:16:08;1.20;;;0.50;;
36241;SDS011;22283;42.748;12.732;2022-11-20T02:26:31;0.88;;;0.50;;
36241;SDS011;22283;42.748;12.732;2022-11-20T02:31:38;1.50;;;0.45;;
36241;SDS011;22283;42.748;12.732;2022-11-20T02:36:41;1.10;;;0.60;;
36241;SDS011;22283;42.748;12.732;2022-11-20T02:41:42;1.52;;;0.65;;
36241;SDS011;22283;42.748;12.732;2022-11-20T02:46:43;0.50;;;0.47;;
36241;SDS011;22283;42.748;12.732;2022-11-20T02:51:44;1.33;;;0.63;;
36241;SDS011;22283;42.748;12.732;2022-11-20T02:56:44;0.27;;;0.27;;
36241;SDS011;22283;42.748;12.732;2022-11-20T03:01:45;1.30;;;0.63;;
36241;SDS011;22283;42.748;12.732;2022-11-20T03:06:45;1.40;;;0.60;;
36241;SDS011;22283;42.748;12.732;2022-11-20T03:11:46;4.87;;;0.50;;
36241;SDS011;22283;42.748;12.732;2022-11-20T03:16:47;0.90;;;0.40;;
36241;SDS011;22283;42.748;12.732;2022-11-20T03:21:47;0.73;;;0.53;;
36241;SDS011;22283;42.748;12.732;2022-11-20T03:26:48;1.30;;;0.63;;
36241;SDS011;22283;42.748;12.732;2022-11-20T03:31:49;1.70;;;0.60;;
36241;SDS011;22283;42.748;12.732;2022-11-20T03:36:49;1.30;;;0.50;;
36241;SDS011;22283;42.748;12.732;2022-11-20T03:41:50;1.10;;;0.70;;
36241;SDS011;22283;42.748;12.732;2022-11-20T03:46:50;2.10;;;0.70;;
36241;SDS011;22283;42.748;12.732;2022-11-20T03:51:51;2.60;;;0.60;;
36241;SDS011;22283;42.748;12.732;2022-11-20T03:56:52;3.10;;;1.53;;
36241;SDS011;22283;42.748;12.732;2022-11-20T04:01:52;0.73;;;0.50;;
36241;SDS011;22283;42.748;12.732;2022-11-20T04:06:53;1.57;;;0.60;;
36241;SDS011;22283;42.748;12.732;2022-11-20T04:11:54;0.73;;;0.53;;
36241;SDS011;22283;42.748;12.732;2022-11-20T04:16:54;0.40;;;0.40;;
36241;SDS011;22283;42.748;12.732;2022-11-20T04:21:55;0.57;;;0.40;;
36241;SDS011;22283;42.748;12.732;2022-11-20T04:26:55;0.33;;;0.33;;
36241;SDS011;22283;42.748;12.732;2022-11-20T04:31:56;2.93;;;0.63;;
36241;SDS011;22283;42.748;12.732;2022-11-20T04:36:57;0.53;;;0.50;;
36241;SDS011;22283;42.748;12.732;2022-11-20T04:41:57;2.83;;;0.70;;
36241;SDS011;22283;42.748;12.732;2022-11-20T04:47:17;2.75;;;1.33;;
36241;SDS011;22283;42.748;12.732;2022-11-20T04:52:17;1.10;;;0.70;;
36241;SDS011;22283;42.748;12.732;2022-11-20T04:57:18;2.37;;;1.10;;
36241;SDS011;22283;42.748;12.732;2022-11-20T05:02:19;4.20;;;1.17;;
36241;SDS011;22283;42.748;12.732;2022-11-20T05:07:20;2.73;;;0.90;;
36241;SDS011;22283;42.748;12.732;2022-11-20T05:12:21;1.23;;;0.70;;
36241;SDS011;22283;42.748;12.732;2022-11-20T05:17:21;1.37;;;0.80;;
36241;SDS011;22283;42.748;12.732;2022-11-20T05:22:22;2.83;;;1.10;;
36241;SDS011;22283;42.748;12.732;2022-11-20T05:27:23;2.00;;;1.30;;
36241;SDS011;22283;42.748;12.732;2022-11-20T05:32:23;8.23;;;1.27;;
36241;SDS011;22283;42.748;12.732;2022-11-20T05:37:25;5.07;;;2.38;;
36241;SDS011;22283;42.748;12.732;2022-11-20T05:42:26;3.30;;;1.83;;
36241;SDS011;22283;42.748;12.732;2022-11-20T05:47:33;3.00;;;2.15;;
36241;SDS011;22283;42.748;12.732;2022-11-20T05:52:35;4.78;;;2.13;;
36241;SDS011;22283;42.748;12.732;2022-11-20T05:57:35;3.77;;;2.63;;
36241;SDS011;22283;42.748;12.732;2022-11-20T06:02:36;4.43;;;3.53;;
36241;SDS011;22283;42.748;12.732;2022-11-20T06:07:37;5.20;;;4.10;;
36241;SDS011;22283;42.748;12.732;2022-11-20T06:12:37;4.90;;;3.97;;
36241;SDS011;22283;42.748;12.732;2022-11-20T06:17:38;4.97;;;4.27;;
36241;SDS011;22283;42.748;12.732;2022-11-20T06:22:38;5.37;;;4.00;;
36241;SDS011;22283;42.748;12.732;2022-11-20T06:27:39;7.10;;;4.97;;
36241;SDS011;22283;42.748;12.732;2022-11-20T06:32:39;4.77;;;3.90;;
36241;SDS011;22283;42.748;12.732;2022-11-20T06:37:40;4.90;;;3.50;;
36241;SDS011;22283;42.748;12.732;2022-11-20T06:42:41;7.40;;;3.87;;
36241;SDS011;22283;42.748;12.732;2022-11-20T06:47:42;6.70;;;4.70;;
36241;SDS011;22283;42.748;12.732;2022-11-20T06:52:42;5.93;;;4.67;;
36241;SDS011;22283;42.748;12.732;2022-11-20T06:57:43;5.47;;;4.43;;
36241;SDS011;22283;42.748;12.732;2022-11-20T07:02:44;6.73;;;5.30;;
36241;SDS011;22283;42.748;12.732;2022-11-20T07:07:44;6.50;;;4.77;;
36241;SDS011;22283;42.748;12.732;2022-11-20T07:12:48;5.10;;;4.47;;
36241;SDS011;22283;42.748;12.732;2022-11-20T07:23:09;7.40;;;4.18;;
36241;SDS011;22283;42.748;12.732;2022-11-20T07:28:10;8.83;;;4.57;;
36241;SDS011;22283;42.748;12.732;2022-11-20T07:33:11;8.43;;;6.60;;
36241;SDS011;22283;42.748;12.732;2022-11-20T07:38:11;8.43;;;6.83;;
36241;SDS011;22283;42.748;12.732;2022-11-20T07:43:12;7.45;;;6.40;;
36241;SDS011;22283;42.748;12.732;2022-11-20T07:48:13;5.73;;;4.57;;
36241;SDS011;22283;42.748;12.732;2022-11-20T07:53:14;10.50;;;7.10;;
36241;SDS011;22283;42.748;12.732;2022-11-20T07:58:21;5.85;;;4.43;;
36241;SDS011;22283;42.748;12.732;2022-11-20T08:03:21;6.10;;;4.43;;
36241;SDS011;22283;42.748;12.732;2022-11-20T08:08:22;6.53;;;3.43;;
36241;SDS011;22283;42.748;12.732;2022-11-20T08:18:45;4.25;;;3.20;;
36241;SDS011;22283;42.748;12.732;2022-11-20T08:23:46;7.13;;;4.33;;
36241;SDS011;22283;42.748;12.732;2022-11-20T08:28:46;3.63;;;3.10;;
36241;SDS011;22283;42.748;12.732;2022-11-20T08:33:47;3.13;;;2.57;;
36241;SDS011;22283;42.748;12.732;2022-11-20T08:38:48;4.73;;;2.60;;
36241;SDS011;22283;42.748;12.732;2022-11-20T08:43:49;6.25;;;3.13;;
36241;SDS011;22283;42.748;12.732;2022-11-20T08:48:51;6.22;;;4.07;;
36241;SDS011;22283;42.748;12.732;2022-11-20T08:53:52;3.83;;;2.92;;
36241;SDS011;22283;42.748;12.732;2022-11-20T08:58:53;3.57;;;3.10;;
36241;SDS011;22283;42.748;12.732;2022-11-20T09:03:56;6.40;;;3.77;;
36241;SDS011;22283;42.748;12.732;2022-11-20T09:08:57;4.70;;;3.00;;
36241;SDS011;22283;42.748;12.732;2022-11-20T09:13:58;4.03;;;3.13;;
36241;SDS011;22283;42.748;12.732;2022-11-20T09:18:58;5.73;;;3.80;;
36241;SDS011;22283;42.748;12.732;2022-11-20T09:23:59;5.23;;;2.70;;
36241;SDS011;22283;42.748;12.732;2022-11-20T09:29:00;3.17;;;2.40;;
36241;SDS011;22283;42.748;12.732;2022-11-20T09:34:00;5.23;;;3.40;;
36241;SDS011;22283;42.748;12.732;2022-11-20T09:39:01;4.13;;;2.93;;
36241;SDS011;22283;42.748;12.732;2022-11-20T09:49:38;5.25;;;2.75;;
36241;SDS011;22283;42.748;12.732;2022-11-20T09:54:56;3.15;;;2.25;;
36241;SDS011;22283;42.748;12.732;2022-11-20T10:00:02;3.65;;;2.50;;
36241;SDS011;22283;42.748;12.732;2022-11-20T10:05:17;2.70;;;2.00;;
36241;SDS011;22283;42.748;12.732;2022-11-20T10:10:29;2.00;;;1.52;;
36241;SDS011;22283;42.748;12.732;2022-11-20T10:26:02;3.85;;;2.47;;
36241;SDS011;22283;42.748;12.732;2022-11-20T10:31:04;3.83;;;2.15;;
36241;SDS011;22283;42.748;12.732;2022-11-20T10:36:19;3.03;;;1.50;;
36241;SDS011;22283;42.748;12.732;2022-11-20T10:41:21;2.78;;;1.60;;
36241;SDS011;22283;42.748;12.732;2022-11-20T10:46:29;3.75;;;2.30;;
36241;SDS011;22283;42.748;12.732;2022-11-20T10:51:40;5.28;;;2.35;;
36241;SDS011;22283;42.748;12.732;2022-11-20T10:56:47;3.65;;;2.10;;
36241;SDS011;22283;42.748;12.732;2022-11-20T11:01:51;3.78;;;2.53;;
36241;SDS011;22283;42.748;12.732;2022-11-20T11:06:53;5.00;;;2.80;;
36241;SDS011;22283;42.748;12.732;2022-11-20T11:11:58;5.10;;;2.28;;
36241;SDS011;22283;42.748;12.732;2022-11-20T11:16:59;4.03;;;3.23;;
36241;SDS011;22283;42.748;12.732;2022-11-20T11:22:00;3.95;;;2.85;;
36241;SDS011;22283;42.748;12.732;2022-11-20T11:27:12;6.85;;;3.78;;
36241;SDS011;22283;42.748;12.732;2022-11-20T11:32:18;4.57;;;3.22;;
36241;SDS011;22283;42.748;12.732;2022-11-20T11:37:23;4.07;;;2.92;;
36241;SDS011;22283;42.748;12.732;2022-11-20T11:42:25;4.03;;;3.08;;
36241;SDS011;22283;42.748;12.732;2022-11-20T11:47:30;6.05;;;3.95;;
36241;SDS011;22283;42.748;12.732;2022-11-20T11:52:42;5.95;;;3.75;;
36241;SDS011;22283;42.748;12.732;2022-11-20T11:57:54;7.82;;;3.90;;
36241;SDS011;22283;42.748;12.732;2022-11-20T12:18:50;10.85;;;9.15;;
36241;SDS011;22283;42.748;12.732;2022-11-20T13:00:24;7.38;;;4.75;;
36241;SDS011;22283;42.748;12.732;2022-11-20T13:16:06;11.00;;;7.05;;
36241;SDS011;22283;42.748;12.732;2022-11-20T13:21:20;7.05;;;4.53;;
36241;SDS011;22283;42.748;12.732;2022-11-20T13:26:35;5.78;;;4.28;;
36241;SDS011;22283;42.748;12.732;2022-11-20T13:31:36;11.63;;;5.70;;
36241;SDS011;22283;42.748;12.732;2022-11-20T13:37:23;9.75;;;5.47;;
36241;SDS011;22283;42.748;12.732;2022-11-20T13:42:26;6.40;;;4.47;;
36241;SDS011;22283;42.748;12.732;2022-11-20T13:47:28;10.45;;;5.22;;
36241;SDS011;22283;42.748;12.732;2022-11-20T14:03:41;6.13;;;4.68;;
36241;SDS011;22283;42.748;12.732;2022-11-20T14:08:48;9.10;;;5.50;;
36241;SDS011;22283;42.748;12.732;2022-11-20T14:19:17;16.98;;;6.45;;
36241;SDS011;22283;42.748;12.732;2022-11-20T14:24:20;10.77;;;6.57;;
36241;SDS011;22283;42.748;12.732;2022-11-20T14:29:28;17.05;;;8.90;;
36241;SDS011;22283;42.748;12.732;2022-11-20T14:34:35;6.45;;;4.60;;
36241;SDS011;22283;42.748;12.732;2022-11-20T14:39:47;15.15;;;11.40;;
36241;SDS011;22283;42.748;12.732;2022-11-20T14:44:50;7.50;;;3.40;;
36241;SDS011;22283;42.748;12.732;2022-11-20T14:49:53;8.32;;;3.83;;
36241;SDS011;22283;42.748;12.732;2022-11-20T14:54:56;5.55;;;3.17;;
36241;SDS011;22283;42.748;12.732;2022-11-20T15:00:07;7.78;;;4.32;;
36241;SDS011;22283;42.748;12.732;2022-11-20T15:05:14;9.52;;;4.72;;
36241;SDS011;22283;42.748;12.732;2022-11-20T15:15:32;18.30;;;3.55;;
36241;SDS011;22283;42.748;12.732;2022-11-20T15:20:36;7.43;;;4.13;;
36241;SDS011;22283;42.748;12.732;2022-11-20T15:25:37;10.47;;;6.03;;
36241;SDS011;22283;42.748;12.732;2022-11-20T15:30:39;14.68;;;8.27;;
36241;SDS011;22283;42.748;12.732;2022-11-20T15:40:42;21.17;;;11.73;;
36241;SDS011;22283;42.748;12.732;2022-11-20T15:50:46;13.93;;;7.77;;
36241;SDS011;22283;42.748;12.732;2022-11-20T15:55:52;36.15;;;23.10;;
36241;SDS011;22283;42.748;12.732;2022-11-20T16:00:53;36.00;;;22.30;;
36241;SDS011;22283;42.748;12.732;2022-11-20T16:05:54;18.63;;;11.90;;
36241;SDS011;22283;42.748;12.732;2022-11-20T16:10:54;11.80;;;6.17;;
36241;SDS011;22283;42.748;12.732;2022-11-20T16:15:55;7.60;;;3.63;;
36241;SDS011;22283;42.748;12.732;2022-11-20T16:20:58;5.03;;;3.20;;
36241;SDS011;22283;42.748;12.732;2022-11-20T16:25:59;10.97;;;4.43;;
36241;SDS011;22283;42.748;12.732;2022-11-20T16:31:10;9.77;;;6.22;;
36241;SDS011;22283;42.748;12.732;2022-11-20T16:36:12;12.85;;;7.13;;
36241;SDS011;22283;42.748;12.732;2022-11-20T16:41:14;11.02;;;5.78;;
36241;SDS011;22283;42.748;12.732;2022-11-20T16:46:15;14.10;;;7.50;;
36241;SDS011;22283;42.748;12.732;2022-11-20T16:51:20;15.38;;;7.80;;
36241;SDS011;22283;42.748;12.732;2022-11-20T16:56:22;14.55;;;9.13;;
36241;SDS011;22283;42.748;12.732;2022-11-20T17:01:25;13.20;;;7.72;;
36241;SDS011;22283;42.748;12.732;2022-11-20T17:06:29;16.88;;;8.75;;
36241;SDS011;22283;42.748;12.732;2022-11-20T17:11:31;17.92;;;10.50;;
36241;SDS011;22283;42.748;12.732;2022-11-20T17:16:33;18.88;;;9.73;;
36241;SDS011;22283;42.748;12.732;2022-11-20T17:21:35;22.33;;;14.20;;
36241;SDS011;22283;42.748;12.732;2022-11-20T17:26:36;14.97;;;9.47;;
36241;SDS011;22283;42.748;12.732;2022-11-20T17:31:38;20.77;;;10.85;;
36241;SDS011;22283;42.748;12.732;2022-11-20T17:36:40;26.57;;;14.33;;
36241;SDS011;22283;42.748;12.732;2022-11-20T17:41:44;26.95;;;14.82;;
36241;SDS011;22283;42.748;12.732;2022-11-20T17:47:05;76.90;;;53.53;;
36241;SDS011;22283;42.748;12.732;2022-11-20T17:52:05;25.47;;;15.77;;
36241;SDS011;22283;42.748;12.732;2022-11-20T17:57:07;28.50;;;15.73;;
36241;SDS011;22283;42.748;12.732;2022-11-20T18:02:27;22.35;;;13.05;;
36241;SDS011;22283;42.748;12.732;2022-11-20T18:07:28;21.50;;;9.57;;
36241;SDS011;22283;42.748;12.732;2022-11-20T18:12:28;51.07;;;26.10;;
36241;SDS011;22283;42.748;12.732;2022-11-20T18:17:29;31.37;;;15.17;;
36241;SDS011;22283;42.748;12.732;2022-11-20T18:22:30;24.27;;;13.33;;
36241;SDS011;22283;42.748;12.732;2022-11-20T18:27:31;19.47;;;11.97;;
36241;SDS011;22283;42.748;12.732;2022-11-20T18:32:32;36.30;;;18.07;;
36241;SDS011;22283;42.748;12.732;2022-11-20T18:37:35;25.70;;;11.95;;
36241;SDS011;22283;42.748;12.732;2022-11-20T18:42:36;37.10;;;16.88;;
36241;SDS011;22283;42.748;12.732;2022-11-20T18:47:54;31.27;;;15.98;;
36241;SDS011;22283;42.748;12.732;2022-11-20T18:52:55;22.57;;;12.33;;
36241;SDS011;22283;42.748;12.732;2022-11-20T18:57:56;16.23;;;8.87;;
36241;SDS011;22283;42.748;12.732;2022-11-20T19:02:56;20.33;;;10.63;;
36241;SDS011;22283;42.748;12.732;2022-11-20T19:07:57;21.97;;;11.07;;
36241;SDS011;22283;42.748;12.732;2022-11-20T19:12:57;30.37;;;15.70;;
36241;SDS011;22283;42.748;12.732;2022-11-20T19:17:59;24.13;;;14.60;;
36241;SDS011;22283;42.748;12.732;2022-11-20T19:23:00;18.33;;;10.07;;
36241;SDS011;22283;42.748;12.732;2022-11-20T19:28:01;22.47;;;12.87;;
36241;SDS011;22283;42.748;12.732;2022-11-20T19:33:03;26.95;;;13.73;;
36241;SDS011;22283;42.748;12.732;2022-11-20T19:38:03;29.47;;;14.47;;
36241;SDS011;22283;42.748;12.732;2022-11-20T19:43:07;28.23;;;15.48;;
36241;SDS011;22283;42.748;12.732;2022-11-20T19:48:07;24.53;;;14.50;;
36241;SDS011;22283;42.748;12.732;2022-11-20T19:53:08;25.77;;;12.70;;
36241;SDS011;22283;42.748;12.732;2022-11-20T19:58:10;17.92;;;10.18;;
36241;SDS011;22283;42.748;12.732;2022-11-20T20:03:12;19.70;;;10.63;;
36241;SDS011;22283;42.748;12.732;2022-11-20T20:08:13;11.17;;;5.57;;
36241;SDS011;22283;42.748;12.732;2022-11-20T20:13:13;18.73;;;8.13;;
36241;SDS011;22283;42.748;12.732;2022-11-20T20:18:14;15.77;;;10.30;;
36241;SDS011;22283;42.748;12.732;2022-11-20T20:23:15;20.50;;;9.13;;
36241;SDS011;22283;42.748;12.732;2022-11-20T20:28:15;13.80;;;7.80;;
36241;SDS011;22283;42.748;12.732;2022-11-20T20:33:16;20.20;;;7.63;;
36241;SDS011;22283;42.748;12.732;2022-11-20T20:38:16;10.53;;;6.10;;
36241;SDS011;22283;42.748;12.732;2022-11-20T20:43:17;13.67;;;7.07;;
36241;SDS011;22283;42.748;12.732;2022-11-20T20:48:19;20.33;;;11.77;;
36241;SDS011;22283;42.748;12.732;2022-11-20T20:53:22;22.38;;;8.60;;
36241;SDS011;22283;42.748;12.732;2022-11-20T20:58:23;15.77;;;8.60;;
36241;SDS011;22283;42.748;12.732;2022-11-20T21:03:25;29.58;;;14.25;;
36241;SDS011;22283;42.748;12.732;2022-11-20T21:08:25;15.93;;;9.70;;
36241;SDS011;22283;42.748;12.732;2022-11-20T21:18:28;16.73;;;9.88;;
36241;SDS011;22283;42.748;12.732;2022-11-20T21:23:32;15.15;;;9.55;;
36241;SDS011;22283;42.748;12.732;2022-11-20T21:28:34;16.00;;;8.60;;
36241;SDS011;22283;42.748;12.732;2022-11-20T21:38:41;10.73;;;5.65;;
36241;SDS011;22283;42.748;12.732;2022-11-20T21:43:43;9.82;;;6.40;;
36241;SDS011;22283;42.748;12.732;2022-11-20T21:48:44;12.80;;;7.73;;
36241;SDS011;22283;42.748;12.732;2022-11-20T21:53:46;20.55;;;10.68;;
36241;SDS011;22283;42.748;12.732;2022-11-20T21:58:48;17.92;;;10.40;;
36241;SDS011;22283;42.748;12.732;2022-11-20T22:03:50;17.13;;;8.73;;
36241;SDS011;22283;42.748;12.732;2022-11-20T22:08:56;13.80;;;6.63;;
36241;SDS011;22283;42.748;12.732;2022-11-20T22:13:57;12.03;;;5.57;;
36241;SDS011;22283;42.748;12.732;2022-11-20T22:19:19;10.45;;;4.63;;
36241;SDS011;22283;42.748;12.732;2022-11-20T22:24:22;13.55;;;4.57;;
36241;SDS011;22283;42.748;12.732;2022-11-20T22:29:23;10.03;;;5.87;;
36241;SDS011;22283;42.748;12.732;2022-11-20T22:34:24;10.97;;;6.53;;
36241;SDS011;22283;42.748;12.732;2022-11-20T22:39:24;10.37;;;5.57;;
36241;SDS011;22283;42.748;12.732;2022-11-20T22:44:25;11.50;;;5.97;;
36241;SDS011;22283;42.748;12.732;2022-11-20T22:49:25;11.93;;;6.60;;
36241;SDS011;22283;42.748;12.732;2022-11-20T22:54:26;9.77;;;5.13;;
36241;SDS011;22283;42.748;12.732;2022-11-20T22:59:27;8.87;;;4.13;;
36241;SDS011;22283;42.748;12.732;2022-11-20T23:04:27;8.77;;;4.33;;
36241;SDS011;22283;42.748;12.732;2022-11-20T23:09:28;8.30;;;3.83;;
36241;SDS011;22283;42.748;12.732;2022-11-20T23:14:29;7.60;;;3.93;;
36241;SDS011;22283;42.748;12.732;2022-11-20T23:19:29;8.83;;;5.40;;
36241;SDS011;22283;42.748;12.732;2022-11-20T23:24:30;7.87;;;3.60;;
36241;SDS011;22283;42.748;12.732;2022-11-20T23:29:30;9.93;;;4.23;;
36241;SDS011;22283;42.748;12.732;2022-11-20T23:34:31;6.67;;;3.13;;
36241;SDS011;22283;42.748;12.732;2022-11-20T23:39:32;5.90;;;3.80;;
36241;SDS011;22283;42.748;12.732;2022-11-20T23:44:32;6.90;;;3.67;;
36241;SDS011;22283;42.748;12.732;2022-11-20T23:49:33;9.20;;;3.40;;
36241;SDS011;22283;42.748;12.732;2022-11-20T23:54:34;6.50;;;4.03;;
36241;SDS011;22283;42.748;12.732;2022-11-20T23:59:35;7.13;;;2.87;;
